Time;durP1;ratioP1;P1;durP2;ratioP2;P2;SDS_P1;SDS_P2;PMS_P1;PMS_P2;Temp;Humidity;BMP_temperature;BMP_pressure;BME280_temperature;BME280_humidity;BME280_pressure;Samples;Min_cycle;Max_cycle;Signal;HPM_P1;HPM_P2
2022/07/16 00:02:49;;;;;;;4.82;1.60;;;;;;;21.11;33.84;98862.28;4474948;32;20127;-77
2022/07/16 00:05:14;;;;;;;5.20;1.60;;;;;;;21.26;33.53;98856.38;4472770;32;20415;-77
2022/07/16 00:07:39;;;;;;;4.68;1.60;;;;;;;21.32;33.46;98853.94;4486931;32;20076;-77
2022/07/16 00:10:05;;;;;;;4.70;1.65;;;;;;;21.28;33.46;98857.09;4486904;32;20128;-77
2022/07/16 00:12:31;;;;;;;5.45;1.77;;;;;;;21.34;33.32;98851.97;4472678;32;20183;-77
2022/07/16 00:14:57;;;;;;;3.75;1.50;;;;;;;20.94;33.83;98845.16;4472759;32;20088;-77
2022/07/16 00:17:23;;;;;;;6.12;1.80;;;;;;;20.89;34.09;98846.59;4472529;32;20410;-77
2022/07/16 00:19:50;;;;;;;5.83;1.53;;;;;;;21.21;33.47;98840.78;4486596;32;20100;-77
2022/07/16 00:22:15;;;;;;;4.15;1.40;;;;;;;21.23;33.40;98844.16;4486923;32;20427;-77
2022/07/16 00:24:41;;;;;;;5.50;1.80;;;;;;;21.11;33.52;98845.31;4472364;32;20133;-77
2022/07/16 00:27:06;;;;;;;6.12;1.60;;;;;;;21.01;33.72;98843.56;4486660;32;20137;-77
2022/07/16 00:29:32;;;;;;;6.85;1.90;;;;;;;21.27;33.29;98848.22;4486678;32;20095;-77
2022/07/16 00:31:57;;;;;;;4.55;1.62;;;;;;;21.26;33.18;98846.50;4486557;32;20092;-77
2022/07/16 00:34:23;;;;;;;5.12;1.80;;;;;;;21.29;33.14;98832.81;4472333;32;20141;-77
2022/07/16 00:36:49;;;;;;;5.80;1.77;;;;;;;21.36;33.08;98847.31;4486668;32;20446;-77
2022/07/16 00:39:16;;;;;;;6.00;1.70;;;;;;;21.51;32.90;98839.59;4472157;32;20127;-77
2022/07/16 00:41:42;;;;;;;5.72;1.80;;;;;;;21.39;33.06;98844.31;4486573;32;20156;-77
2022/07/16 00:44:10;;;;;;;5.83;1.70;;;;;;;21.41;33.18;98850.34;4486476;32;20088;-77
2022/07/16 00:46:36;;;;;;;6.03;1.98;;;;;;;21.61;32.97;98839.53;4486519;32;20076;-77
2022/07/16 00:49:03;;;;;;;7.20;1.85;;;;;;;21.63;32.96;98845.56;4486479;32;20213;-77
2022/07/16 00:51:29;;;;;;;7.32;1.85;;;;;;;21.54;33.42;98838.47;4486442;32;20130;-77
2022/07/16 00:53:55;;;;;;;5.78;1.73;;;;;;;21.73;33.26;98843.69;4486259;32;20085;-77
2022/07/16 00:56:21;;;;;;;5.75;1.65;;;;;;;21.55;33.71;98840.97;4486349;32;20085;-76
2022/07/16 00:58:47;;;;;;;6.55;1.60;;;;;;;21.62;33.62;98848.44;4472289;32;20512;-77
2022/07/16 01:01:13;;;;;;;5.15;1.80;;;;;;;21.40;34.12;98851.38;4486500;32;20091;-76
2022/07/16 01:03:40;;;;;;;7.25;2.20;;;;;;;21.49;34.02;98852.31;4473948;32;20130;-77
2022/07/16 01:06:06;;;;;;;7.22;1.80;;;;;;;21.38;34.17;98852.50;4488386;32;20084;-77
2022/07/16 01:08:36;;;;;;;6.50;2.10;;;;;;;21.47;34.00;98854.31;4474067;32;20101;-77
2022/07/16 01:11:04;;;;;;;3.83;1.50;;;;;;;21.14;34.44;98851.22;4473996;32;20127;-77
2022/07/16 01:13:30;;;;;;;5.53;1.62;;;;;;;21.60;33.74;98846.72;4488019;32;20097;-77
2022/07/16 01:15:55;;;;;;;7.28;1.65;;;;;;;21.66;33.75;98850.66;4488109;32;20140;-77
2022/07/16 01:18:21;;;;;;;5.72;1.62;;;;;;;21.70;33.70;98843.16;4488259;32;20104;-77
2022/07/16 01:20:46;;;;;;;5.78;1.70;;;;;;;21.78;33.42;98837.84;4487890;32;20480;-77
2022/07/16 01:23:21;;;;;;;7.15;1.55;;;;;;;21.71;33.53;98844.81;4473924;32;20092;-77
2022/07/16 01:25:47;;;;;;;4.82;1.48;;;;;;;21.41;34.14;98849.53;4488081;32;20481;-77
2022/07/16 01:28:13;;;;;;;7.03;1.80;;;;;;;21.34;34.26;98841.25;4487932;32;20096;-77
2022/07/16 01:30:38;;;;;;;5.20;1.73;;;;;;;21.08;34.85;98851.84;4473720;32;20523;-77
2022/07/16 01:33:27;;;;;;;5.80;1.77;;;;;;;21.46;34.31;98854.44;4487843;32;20111;-77
2022/07/16 01:35:54;;;;;;;;;;;;;;;21.36;34.55;98850.00;4474523;32;20092;-77
2022/07/16 01:38:19;;;;;;;5.85;1.70;;;;;;;21.39;34.48;98855.03;4488269;32;19975;-77
2022/07/16 01:40:45;;;;;;;6.97;1.90;;;;;;;21.31;34.63;98846.06;4460734;32;20122;-77
2022/07/16 01:43:18;;;;;;;4.70;1.70;;;;;;;21.28;34.80;98857.09;4487899;32;20111;-77
2022/07/16 01:45:43;;;;;;;6.55;1.87;;;;;;;21.31;34.84;98854.12;4473811;32;20153;-77
2022/07/16 01:48:10;;;;;;;5.78;1.80;;;;;;;21.34;34.88;98860.03;4473553;32;20148;-77
2022/07/16 01:50:36;;;;;;;5.85;1.60;;;;;;;21.13;35.14;98856.75;4474070;32;20448;-77
2022/07/16 01:53:02;;;;;;;5.65;2.00;;;;;;;21.26;35.16;98854.56;4488159;32;20134;-77
2022/07/16 01:55:27;;;;;;;5.22;1.62;;;;;;;21.21;35.22;98862.22;4488107;32;20464;-77
2022/07/16 01:57:53;;;;;;;7.25;1.85;;;;;;;20.81;35.81;98861.53;4488177;32;20089;-77
2022/07/16 02:00:18;;;;;;;7.10;1.73;;;;;;;21.19;35.22;98861.53;4488120;32;20118;-77
2022/07/16 02:02:44;;;;;;;4.97;1.58;;;;;;;20.77;35.86;98860.16;4488107;32;20392;-77
2022/07/16 02:05:09;;;;;;;4.60;1.67;;;;;;;20.99;35.46;98860.75;4487811;32;20084;-77
2022/07/16 02:07:35;;;;;;;4.93;1.80;;;;;;;20.83;35.77;98849.84;4487737;32;20123;-77
2022/07/16 02:10:01;;;;;;;5.55;1.85;;;;;;;20.91;35.56;98856.16;4487834;32;20096;-77
2022/07/16 02:12:28;;;;;;;5.07;1.70;;;;;;;21.05;35.32;98854.81;4473678;32;20096;-77
2022/07/16 02:14:53;;;;;;;5.65;1.92;;;;;;;21.10;35.20;98852.53;4487914;32;20088;-77
2022/07/16 02:17:18;;;;;;;6.20;1.95;;;;;;;21.11;35.26;98850.69;4488099;32;20119;-77
2022/07/16 02:19:44;;;;;;;6.20;1.90;;;;;;;21.12;35.08;98852.38;4487785;32;20079;-77
2022/07/16 02:22:09;;;;;;;5.53;1.60;;;;;;;21.15;35.11;98849.41;4488080;32;20110;-77
2022/07/16 02:24:35;;;;;;;6.35;2.08;;;;;;;21.16;35.25;98851.09;4487921;32;20110;-77
2022/07/16 02:27:00;;;;;;;6.53;1.75;;;;;;;21.17;35.35;98848.28;4487763;32;20396;-77
2022/07/16 02:29:26;;;;;;;5.47;1.65;;;;;;;21.15;35.34;98842.22;4487955;32;20092;-77
2022/07/16 02:31:51;;;;;;;5.05;1.58;;;;;;;21.17;35.34;98847.41;4487773;32;20092;-77
2022/07/16 02:34:17;;;;;;;4.45;1.62;;;;;;;21.14;35.09;98847.72;4487812;32;20119;-77
2022/07/16 02:36:42;;;;;;;5.35;1.70;;;;;;;20.94;35.10;98838.97;4487836;32;20403;-77
2022/07/16 02:39:07;;;;;;;5.43;1.70;;;;;;;21.03;35.04;98848.75;4487778;32;20084;-77
2022/07/16 02:41:33;;;;;;;6.30;1.90;;;;;;;21.02;34.81;98845.25;4473470;32;20084;-77
2022/07/16 02:43:58;;;;;;;7.53;1.90;;;;;;;21.06;34.80;98840.44;4473154;32;20080;-77
2022/07/16 02:46:24;;;;;;;6.60;1.80;;;;;;;21.18;34.64;98843.75;4487444;32;20089;-77
2022/07/16 02:48:49;;;;;;;5.80;2.30;;;;;;;21.19;34.74;98850.81;4487496;32;20084;-77
2022/07/16 02:51:15;;;;;;;4.75;1.67;;;;;;;21.04;35.02;98854.97;4487386;32;20144;-77
2022/07/16 02:53:40;;;;;;;5.10;1.73;;;;;;;21.18;34.70;98857.97;4487363;32;20081;-77
2022/07/16 02:56:06;;;;;;;5.82;1.70;;;;;;;21.18;34.70;98857.13;4487399;32;20203;-77
2022/07/16 02:58:32;;;;;;;5.50;1.65;;;;;;;21.18;34.82;98860.66;4473172;32;20345;-77
2022/07/16 03:00:57;;;;;;;5.00;1.85;;;;;;;21.14;34.86;98858.44;4487364;32;20088;-77
2022/07/16 03:03:23;;;;;;;4.55;1.60;;;;;;;21.14;34.79;98863.78;4487486;32;20093;-77
2022/07/16 03:05:49;;;;;;;6.37;1.75;;;;;;;21.13;34.65;98862.97;4473011;32;20467;-77
2022/07/16 03:08:14;;;;;;;5.22;1.60;;;;;;;21.16;34.63;98864.50;4487425;32;20092;-77
2022/07/16 03:10:39;;;;;;;6.12;1.75;;;;;;;21.16;34.61;98865.31;4473077;32;20108;-77
2022/07/16 03:13:05;;;;;;;5.22;1.50;;;;;;;21.14;34.68;98855.75;4487203;32;20092;-77
2022/07/16 03:15:30;;;;;;;7.78;1.90;;;;;;;21.21;34.49;98867.56;4473033;32;20105;-77
2022/07/16 03:17:56;;;;;;;5.35;1.60;;;;;;;21.20;34.57;98868.56;4487251;32;20138;-77
2022/07/16 03:20:21;;;;;;;5.72;1.75;;;;;;;20.71;35.07;98866.09;4487153;32;20478;-77
2022/07/16 03:22:47;;;;;;;6.00;1.70;;;;;;;21.01;34.80;98874.84;4487297;32;20108;-77
2022/07/16 03:25:14;;;;;;;7.05;1.90;;;;;;;21.09;34.72;98868.75;4486711;32;20118;-77
2022/07/16 03:27:39;;;;;;;5.85;1.80;;;;;;;21.11;34.56;98870.31;4487469;32;20126;-77
2022/07/16 03:30:05;;;;;;;5.60;1.60;;;;;;;21.02;34.66;98874.69;4487374;32;20120;-77
2022/07/16 03:32:31;;;;;;;5.55;1.73;;;;;;;21.25;34.20;98876.12;4487186;32;20118;-77
2022/07/16 03:34:56;;;;;;;5.12;1.60;;;;;;;21.17;34.42;98872.37;4472834;32;20483;-77
2022/07/16 03:37:22;;;;;;;5.35;1.60;;;;;;;21.28;34.23;98870.47;4487098;32;20838;-77
2022/07/16 03:39:47;;;;;;;4.53;1.60;;;;;;;21.32;34.14;98872.69;4487141;32;20485;-76
2022/07/16 03:42:13;;;;;;;7.18;1.67;;;;;;;21.32;34.12;98883.41;4487104;32;20140;-77
2022/07/16 03:44:38;;;;;;;6.87;1.77;;;;;;;21.41;34.10;98879.00;4487150;32;20114;-77
2022/07/16 03:47:04;;;;;;;5.28;1.55;;;;;;;21.27;34.12;98884.88;4472807;32;20115;-77
2022/07/16 03:49:29;;;;;;;5.37;1.60;;;;;;;21.24;34.15;98893.22;4486981;32;20347;-77
2022/07/16 03:51:55;;;;;;;4.32;1.48;;;;;;;21.29;34.16;98896.28;4486971;32;20076;-77
2022/07/16 03:54:21;;;;;;;5.50;1.65;;;;;;;21.19;34.61;98897.19;4472837;32;20104;-77
2022/07/16 03:56:47;;;;;;;6.25;1.60;;;;;;;21.28;34.32;98894.59;4487038;32;20114;-77
2022/07/16 03:59:12;;;;;;;6.55;1.80;;;;;;;21.32;34.38;98894.13;4487013;32;20081;-77
2022/07/16 04:01:38;;;;;;;4.60;1.52;;;;;;;21.02;34.91;98895.28;4486876;32;20339;-77
2022/07/16 04:04:04;;;;;;;5.53;1.70;;;;;;;21.20;34.78;98893.50;4472747;32;20499;-77
2022/07/16 04:06:29;;;;;;;5.70;1.60;;;;;;;21.15;34.85;98886.91;4472710;32;20127;-77
2022/07/16 04:08:55;;;;;;;5.93;1.75;;;;;;;21.27;34.70;98896.44;4486978;32;20139;-77
2022/07/16 04:11:20;;;;;;;6.95;1.60;;;;;;;21.44;34.49;98886.78;4486933;32;20412;-77
2022/07/16 04:13:46;;;;;;;6.12;1.58;;;;;;;21.56;34.27;98888.25;4486728;32;20120;-77
2022/07/16 04:16:11;;;;;;;5.80;1.70;;;;;;;21.66;34.03;98884.66;4472729;32;20153;-77
2022/07/16 04:18:37;;;;;;;5.40;1.70;;;;;;;21.85;33.96;98887.19;4486977;32;20107;-76
2022/07/16 04:21:04;;;;;;;5.50;1.83;;;;;;;22.01;33.83;98888.34;4487151;32;20427;-77
2022/07/16 04:23:30;;;;;;;6.03;1.55;;;;;;;22.01;33.75;98886.50;4472876;32;20096;-77
2022/07/16 04:25:55;;;;;;;5.75;1.62;;;;;;;22.25;33.30;98891.28;4487041;32;20140;-77
2022/07/16 04:28:21;;;;;;;6.32;1.55;;;;;;;22.09;33.67;98891.91;4486868;32;20080;-77
2022/07/16 04:30:47;;;;;;;5.47;1.73;;;;;;;22.10;33.65;98888.25;4459709;32;20088;-77
2022/07/16 04:33:13;;;;;;;4.93;1.45;;;;;;;22.28;33.44;98888.25;4472726;32;20111;-77
2022/07/16 04:35:38;;;;;;;5.07;1.92;;;;;;;22.28;33.44;98888.25;4486865;32;20350;-77
2022/07/16 04:38:04;;;;;;;6.03;1.77;;;;;;;22.45;33.27;98897.28;4485768;32;20309;-77
2022/07/16 04:40:29;;;;;;;5.40;1.60;;;;;;;22.44;33.38;98890.22;4472291;32;20138;-77
2022/07/16 04:42:55;;;;;;;6.60;1.70;;;;;;;22.47;33.39;98891.75;4486492;32;20142;-77
2022/07/16 04:45:21;;;;;;;4.87;1.55;;;;;;;22.54;33.46;98885.59;4472144;32;20116;-76
2022/07/16 04:47:46;;;;;;;5.50;1.55;;;;;;;22.77;33.48;98887.72;4486558;32;20112;-77
2022/07/16 04:50:11;;;;;;;6.62;1.73;;;;;;;23.00;32.86;98889.88;4486377;32;20072;-77
2022/07/16 04:52:37;;;;;;;6.75;1.95;;;;;;;22.75;33.42;98877.16;4486310;32;20092;-77
2022/07/16 04:55:04;;;;;;;5.80;1.58;;;;;;;22.97;33.23;98885.66;4472241;32;20092;-76
2022/07/16 04:57:30;;;;;;;5.57;1.73;;;;;;;22.86;33.46;98888.63;4472083;32;20092;-76
2022/07/16 04:59:56;;;;;;;7.77;1.87;;;;;;;23.01;33.52;98883.50;4472047;32;20152;-77
2022/07/16 05:05:07;;;;;;;5.03;1.50;;;;;;;23.17;33.52;98891.66;4486468;32;20152;-77
2022/07/16 05:07:33;;;;;;;5.93;1.80;;;;;;;23.53;33.10;98888.75;4486201;32;20089;-77
2022/07/16 05:09:58;;;;;;;4.32;1.70;;;;;;;23.18;33.31;98893.34;4486080;32;20136;-77
2022/07/16 05:12:24;;;;;;;5.10;1.80;;;;;;;23.56;32.70;98896.47;4486036;32;20084;-77
2022/07/16 05:14:49;;;;;;;4.97;1.60;;;;;;;23.89;32.01;98897.44;4486155;32;20097;-76
2022/07/16 05:17:15;;;;;;;4.93;1.90;;;;;;;23.68;31.91;98894.31;4485932;32;20092;-76
2022/07/16 05:19:40;;;;;;;5.35;1.52;;;;;;;23.51;32.34;98891.59;4485763;32;20371;-76
2022/07/16 05:22:06;;;;;;;5.35;1.70;;;;;;;23.34;32.69;98893.41;4471648;32;20187;-77
2022/07/16 05:24:32;;;;;;;6.65;1.67;;;;;;;23.54;32.70;98890.44;4485931;32;20084;-76
2022/07/16 05:26:58;;;;;;;4.12;1.50;;;;;;;23.77;32.43;98890.66;4485905;32;20072;-77
2022/07/16 05:29:24;;;;;;;5.75;1.75;;;;;;;23.88;32.15;98895.75;4458547;32;20137;-77
2022/07/16 05:31:49;;;;;;;7.25;1.62;;;;;;;23.85;32.42;98888.00;4471448;32;20345;-76
2022/07/16 05:34:15;;;;;;;5.75;1.70;;;;;;;23.55;32.79;98895.66;4485996;32;20141;-77
2022/07/16 05:36:40;;;;;;;7.37;1.85;;;;;;;23.97;32.57;98887.66;4471652;32;20080;-77
2022/07/16 05:39:05;;;;;;;5.70;1.65;;;;;;;24.00;32.37;98893.56;4485974;32;20106;-77
2022/07/16 05:41:31;;;;;;;5.50;1.58;;;;;;;24.07;32.10;98893.75;4485841;32;20381;-77
2022/07/16 05:43:57;;;;;;;4.37;1.50;;;;;;;24.27;32.10;98889.69;4485957;32;20116;-76
2022/07/16 05:46:23;;;;;;;5.00;1.75;;;;;;;24.33;31.75;98894.41;4471594;32;20121;-76
2022/07/16 05:48:49;;;;;;;5.43;1.60;;;;;;;24.37;31.24;98894.91;4486812;32;20092;-77
2022/07/16 05:51:14;;;;;;;4.40;1.73;;;;;;;24.44;31.44;98885.12;4487950;32;20462;-77
2022/07/16 05:53:39;;;;;;;5.20;1.58;;;;;;;24.53;31.36;98897.63;4487855;32;20080;-77
2022/07/16 05:56:05;;;;;;;4.43;1.75;;;;;;;24.50;31.28;98899.78;4487912;32;20145;-77
2022/07/16 05:58:31;;;;;;;7.47;1.87;;;;;;;24.71;30.57;98893.88;4487840;32;20068;-77
2022/07/16 06:00:56;;;;;;;4.68;1.50;;;;;;;24.57;30.36;98886.50;4473486;32;20136;-77
2022/07/16 06:03:21;;;;;;;5.70;1.62;;;;;;;24.87;30.51;98893.81;4487888;32;20115;-76
2022/07/16 06:05:47;;;;;;;6.22;1.77;;;;;;;24.60;30.24;98899.62;4487798;32;20080;-76
2022/07/16 06:08:12;;;;;;;7.07;1.52;;;;;;;24.75;29.90;98899.78;4487831;32;20120;-77
2022/07/16 06:10:37;;;;;;;5.28;1.50;;;;;;;25.07;29.58;98885.34;4487769;32;20139;-77
2022/07/16 06:13:03;;;;;;;4.80;1.60;;;;;;;25.06;29.92;98894.44;4487665;32;20364;-77
2022/07/16 06:15:28;;;;;;;5.18;1.62;;;;;;;25.15;29.78;98897.94;4473546;32;20367;-77
2022/07/16 06:17:54;;;;;;;4.18;1.62;;;;;;;25.52;29.30;98900.00;4487607;32;20056;-77
2022/07/16 06:20:19;;;;;;;3.95;1.40;;;;;;;25.51;28.80;98903.72;4487559;32;20114;-77
2022/07/16 06:22:45;;;;;;;6.03;1.80;;;;;;;25.55;28.50;98904.19;4473452;32;20112;-77
2022/07/16 06:25:10;;;;;;;5.68;1.70;;;;;;;25.43;28.63;98909.16;4487775;32;20081;-77
2022/07/16 06:27:40;;;;;;;6.50;1.40;;;;;;;25.69;27.85;98898.91;4473291;32;20399;-77
2022/07/16 06:30:06;;;;;;;5.68;1.65;;;;;;;25.85;27.63;98913.31;4487577;32;20110;-77
2022/07/16 06:32:32;;;;;;;5.22;1.65;;;;;;;25.35;28.01;98920.81;4487541;32;20093;-77
2022/07/16 06:34:57;;;;;;;5.40;1.48;;;;;;;25.63;27.57;98920.34;4473493;32;20106;-77
2022/07/16 06:37:23;;;;;;;4.93;1.70;;;;;;;25.88;27.12;98919.19;4487560;32;20084;-77
2022/07/16 06:39:48;;;;;;;6.60;1.65;;;;;;;25.95;26.44;98923.91;4487544;32;20157;-76
2022/07/16 06:42:14;;;;;;;5.87;1.77;;;;;;;25.93;26.44;98920.53;4487600;32;20111;-77
2022/07/16 06:44:40;;;;;;;4.15;1.50;;;;;;;25.76;26.72;98925.16;4460288;32;20110;-77
2022/07/16 06:47:06;;;;;;;4.10;1.48;;;;;;;25.73;26.35;98926.37;4473270;32;20085;-77
2022/07/16 06:49:32;;;;;;;4.40;1.52;;;;;;;25.99;26.16;98917.13;4473308;32;20099;-77
2022/07/16 06:51:57;;;;;;;6.15;1.58;;;;;;;25.71;25.61;98928.41;4487286;32;20190;-77
2022/07/16 06:54:22;;;;;;;5.37;1.50;;;;;;;25.88;25.82;98926.41;4487406;32;20080;-77
2022/07/16 06:56:48;;;;;;;6.03;1.70;;;;;;;25.89;25.79;98922.72;4487332;32;20108;-77
2022/07/16 06:59:13;;;;;;;5.35;1.62;;;;;;;25.73;26.18;98926.37;4486796;32;20262;-77
2022/07/16 07:01:39;;;;;;;5.53;1.70;;;;;;;25.96;26.02;98930.97;4472881;32;20092;-77
2022/07/16 07:04:05;;;;;;;4.72;1.48;;;;;;;26.00;25.62;98929.56;4487304;32;20383;-77
2022/07/16 07:06:31;;;;;;;5.97;1.60;;;;;;;26.33;25.65;98923.91;4473121;32;20068;-76
2022/07/16 07:08:57;;;;;;;6.82;2.00;;;;;;;26.12;25.12;98922.75;4487508;32;20251;-77
2022/07/16 07:11:22;;;;;;;5.40;1.58;;;;;;;26.42;24.65;98929.06;4487317;32;20373;-77
2022/07/16 07:13:48;;;;;;;5.22;1.40;;;;;;;26.73;24.29;98921.91;4487243;32;20130;-77
2022/07/16 07:16:13;;;;;;;8.88;1.77;;;;;;;26.93;24.09;98914.94;4460037;32;20123;-77
2022/07/16 07:18:39;;;;;;;7.85;1.73;;;;;;;26.74;24.61;98919.03;4472907;32;20384;-76
2022/07/16 07:21:04;;;;;;;5.32;1.70;;;;;;;27.08;24.12;98920.31;4487538;32;20407;-77
2022/07/16 07:23:30;;;;;;;10.38;1.67;;;;;;;27.04;24.33;98921.72;4487245;32;20109;-77
2022/07/16 07:25:55;;;;;;;7.03;1.80;;;;;;;27.48;23.75;98920.06;4472942;32;20123;-77
2022/07/16 07:28:21;;;;;;;4.70;1.40;;;;;;;27.23;24.07;98920.34;4487270;32;20096;-77
2022/07/16 07:30:46;;;;;;;9.07;1.95;;;;;;;27.08;23.98;98925.72;4487312;32;20123;-77
2022/07/16 07:33:12;;;;;;;5.07;1.55;;;;;;;27.32;23.72;98923.81;4487157;32;20073;-77
2022/07/16 07:35:38;;;;;;;7.32;1.58;;;;;;;27.63;23.54;98916.28;4487122;32;20519;-77
2022/07/16 07:38:03;;;;;;;5.03;1.75;;;;;;;27.52;23.18;98922.19;4487173;32;20123;-77
2022/07/16 07:40:29;;;;;;;4.25;1.40;;;;;;;27.18;23.55;98923.59;4487204;32;20088;-77
2022/07/16 07:42:55;;;;;;;2.80;1.33;;;;;;;27.82;23.17;98908.59;4472843;32;20114;-77
2022/07/16 07:45:21;;;;;;;5.97;1.77;;;;;;;28.01;22.71;98916.09;4487172;32;20103;-77
2022/07/16 07:47:47;;;;;;;7.00;1.90;;;;;;;27.79;22.82;98917.06;4487077;32;20428;-77
2022/07/16 07:50:13;;;;;;;7.28;1.52;;;;;;;27.61;23.13;98912.94;4473102;32;20100;-77
2022/07/16 07:52:39;;;;;;;4.40;1.45;;;;;;;27.96;22.92;98925.84;4472829;32;20080;-77
2022/07/16 07:55:05;;;;;;;6.75;1.92;;;;;;;28.03;22.78;98921.34;4486958;32;20081;-77
2022/07/16 07:57:30;;;;;;;7.75;1.70;;;;;;;27.56;23.25;98915.34;4487098;32;20096;-77
2022/07/16 07:59:55;;;;;;;6.57;1.80;;;;;;;27.42;23.47;98917.06;4487056;32;20102;-77
2022/07/16 08:02:21;;;;;;;6.07;1.95;;;;;;;27.51;23.25;98907.00;4486934;32;20080;-77
2022/07/16 08:04:46;;;;;;;6.03;1.70;;;;;;;27.57;24.14;98918.94;4486999;32;20174;-77
2022/07/16 08:07:12;;;;;;;4.93;2.00;;;;;;;27.61;23.63;98907.53;4486880;32;20364;-77
2022/07/16 08:09:37;;;;;;;5.07;1.70;;;;;;;27.52;23.89;98910.53;4486905;32;20100;-77
2022/07/16 08:12:03;;;;;;;5.32;1.58;;;;;;;27.57;23.31;98906.22;4472613;32;20081;-77
2022/07/16 08:14:29;;;;;;;4.43;1.58;;;;;;;27.79;23.51;98911.66;4487038;32;20096;-77
2022/07/16 08:16:56;;;;;;;5.72;1.45;;;;;;;27.83;23.54;98904.84;4487184;32;20518;-77
2022/07/16 08:19:22;;;;;;;5.80;1.70;;;;;;;28.07;23.31;98906.38;4487010;32;20156;-77
2022/07/16 08:21:48;;;;;;;6.97;1.60;;;;;;;28.11;22.09;98893.28;4487067;32;20128;-77
2022/07/16 08:26:58;;;;;;;6.18;1.55;;;;;;;27.93;23.24;98899.12;4474806;32;20115;-77
2022/07/16 08:29:24;;;;;;;5.55;1.60;;;;;;;27.77;22.96;98898.31;4472631;32;20136;-77
2022/07/16 08:31:51;;;;;;;3.97;1.33;;;;;;;28.04;23.04;98893.22;4486598;32;20394;-77
2022/07/16 08:34:16;;;;;;;4.65;1.60;;;;;;;28.11;22.48;98896.00;4472867;32;20108;-77
2022/07/16 08:36:42;;;;;;;5.45;1.67;;;;;;;28.03;22.96;98891.53;4486835;32;20100;-77
2022/07/16 08:39:08;;;;;;;4.47;1.42;;;;;;;28.00;22.92;98905.47;4472239;32;20080;-77
2022/07/16 08:41:34;;;;;;;8.15;2.03;;;;;;;27.69;23.31;98898.44;4472235;32;20102;-77
2022/07/16 08:43:59;;;;;;;3.40;1.60;;;;;;;28.01;22.89;98893.63;4472217;32;20077;-77
2022/07/16 08:46:26;;;;;;;6.20;1.67;;;;;;;27.76;23.09;98895.81;4486220;32;20116;-77
2022/07/16 08:48:52;;;;;;;6.80;1.50;;;;;;;27.81;22.95;98896.06;4486517;32;20088;-77
2022/07/16 08:51:30;;;;;;;5.22;1.55;;;;;;;27.72;23.32;98881.84;4472199;32;20466;-77
2022/07/16 08:53:55;;;;;;;;;;;;;;;27.45;23.43;98891.53;4486699;32;20070;-77
2022/07/16 08:56:21;;;;;;;4.18;1.70;;;;;;;27.70;23.21;98883.03;4472154;32;20025;-77
2022/07/16 08:58:46;;;;;;;6.35;1.90;;;;;;;27.70;23.02;98888.44;4486410;32;20119;-77
2022/07/16 09:01:12;;;;;;;6.90;1.70;;;;;;;27.68;23.08;98891.38;4471961;32;20100;-77
2022/07/16 09:03:37;;;;;;;5.93;1.80;;;;;;;27.78;23.16;98886.47;4486245;32;20081;-77
2022/07/16 09:06:03;;;;;;;6.62;1.87;;;;;;;27.76;22.91;98885.84;4486224;32;20084;-77
2022/07/16 09:08:28;;;;;;;5.37;1.70;;;;;;;27.45;23.21;98886.13;4472032;32;20096;-77
2022/07/16 09:10:54;;;;;;;5.03;1.65;;;;;;;27.63;23.07;98881.09;4486137;32;20473;-77
2022/07/16 09:13:20;;;;;;;6.20;1.67;;;;;;;27.59;23.18;98884.41;4471709;32;20092;-77
2022/07/16 09:15:45;;;;;;;6.80;1.67;;;;;;;27.73;23.24;98882.66;4486035;32;20169;-77
2022/07/16 09:18:22;;;;;;;5.22;1.65;;;;;;;27.37;23.49;98878.09;4486099;32;20137;-77
2022/07/16 09:21:03;;;;;;;6.78;1.92;;;;;;;27.46;23.34;98877.78;4471599;32;20115;-77
2022/07/16 09:23:36;;;;;;;4.75;1.70;;;;;;;27.48;23.65;98879.47;4472626;32;20101;-77
2022/07/16 09:26:04;;;;;;;8.00;1.90;;;;;;;27.47;23.51;98875.94;4488133;32;20122;-77
2022/07/16 09:28:47;;;;;;;3.72;1.77;;;;;;;27.73;23.37;98866.41;4488083;32;20112;-77
2022/07/16 09:31:37;;;;;;;5.07;1.62;;;;;;;27.76;23.61;98875.00;4474014;32;20493;-77
2022/07/16 09:34:12;;;;;;;11.32;1.90;;;;;;;27.85;23.04;98871.16;4488043;32;20080;-77
2022/07/16 09:36:41;;;;;;;6.78;1.87;;;;;;;27.89;22.73;98868.06;4488327;32;20104;-77
2022/07/16 09:39:07;;;;;;;5.72;1.77;;;;;;;28.00;23.39;98859.44;4473836;32;20130;-77
2022/07/16 09:41:47;;;;;;;7.00;1.90;;;;;;;28.23;22.70;98867.34;4488042;32;20471;-77
2022/07/16 09:44:14;;;;;;;6.87;1.73;;;;;;;28.03;22.66;98862.59;4487968;32;20224;-77
2022/07/16 09:46:40;;;;;;;7.12;1.90;;;;;;;28.36;22.68;98853.91;4487961;32;20104;-77
2022/07/16 09:49:06;;;;;;;5.13;1.90;;;;;;;28.39;22.49;98860.78;4488015;32;20092;-77
2022/07/16 09:51:37;;;;;;;6.10;1.80;;;;;;;28.39;22.38;98861.62;4488227;32;20127;-77
2022/07/16 09:54:03;;;;;;;6.60;1.85;;;;;;;28.37;22.22;98863.69;4487884;32;20088;-77
2022/07/16 09:56:29;;;;;;;6.35;1.92;;;;;;;28.47;22.13;98852.50;4488130;32;20096;-77
2022/07/16 09:58:56;;;;;;;7.90;1.85;;;;;;;28.20;22.99;98874.00;4488150;32;20123;-77
2022/07/16 10:01:23;;;;;;;6.47;1.83;;;;;;;27.92;23.23;98848.75;4473944;32;20093;-77
2022/07/16 10:03:50;;;;;;;6.40;1.90;;;;;;;27.78;23.67;98853.16;4488214;32;20141;-77
2022/07/16 10:06:15;;;;;;;9.57;2.00;;;;;;;28.04;23.62;98853.41;4488121;32;20126;-77
2022/07/16 10:08:43;;;;;;;8.93;1.87;;;;;;;28.14;22.80;98857.66;4488072;32;20088;-77
2022/07/16 10:11:10;;;;;;;4.50;1.52;;;;;;;28.18;22.93;98850.81;4488111;32;20123;-77
2022/07/16 10:13:37;;;;;;;7.03;1.67;;;;;;;28.26;23.23;98855.25;4473910;32;20137;-77
2022/07/16 10:16:03;;;;;;;7.35;2.33;;;;;;;28.26;22.82;98863.38;4460721;32;20108;-77
2022/07/16 10:18:46;;;;;;;7.47;1.92;;;;;;;28.28;23.14;98851.34;4473404;32;20138;-77
2022/07/16 10:21:14;;;;;;;6.30;1.98;;;;;;;28.49;22.99;98855.88;4487772;32;20084;-77
2022/07/16 10:23:42;;;;;;;4.87;1.50;;;;;;;28.42;22.63;98850.41;4487720;32;20148;-77
2022/07/16 10:26:19;;;;;;;5.15;1.90;;;;;;;28.26;22.80;98853.41;4487691;32;20149;-77
2022/07/16 10:28:47;;;;;;;6.50;1.67;;;;;;;28.50;23.05;98843.16;4487769;32;20100;-77
2022/07/16 10:34:35;;;;;;;5.62;1.90;;;;;;;28.65;22.15;98841.19;4486709;32;20229;-77
2022/07/16 10:37:02;;;;;;;6.12;1.67;;;;;;;28.62;22.55;98834.28;4487465;32;20410;-77
2022/07/16 10:39:27;;;;;;;8.55;2.00;;;;;;;28.74;22.40;98831.88;4473371;32;20176;-77
2022/07/16 10:41:54;;;;;;;6.50;1.75;;;;;;;28.43;22.51;98833.13;4487495;32;20112;-77
2022/07/16 10:44:21;;;;;;;5.85;2.00;;;;;;;28.56;23.12;98824.25;4473194;32;20085;-77
2022/07/16 10:46:59;;;;;;;4.30;1.80;;;;;;;28.75;22.46;98827.28;4487560;32;20096;-77
2022/07/16 10:49:27;;;;;;;6.03;1.90;;;;;;;28.94;22.52;98826.56;4473343;32;20172;-77
2022/07/16 10:52:15;;;;;;;5.93;1.83;;;;;;;28.99;22.69;98820.50;4473265;32;20140;-77
2022/07/16 10:54:42;;;;;;;8.35;2.20;;;;;;;29.00;22.31;98814.06;4473079;32;20095;-77
2022/07/16 10:57:09;;;;;;;7.30;2.00;;;;;;;28.82;22.82;98817.31;4473263;32;20151;-77
2022/07/16 10:59:38;;;;;;;;;;;;;;;28.91;22.78;98807.97;4487893;32;20096;-77
2022/07/16 11:02:06;;;;;;;5.90;1.83;;;;;;;28.81;23.03;98802.91;4487527;32;20027;-77
2022/07/16 11:04:31;;;;;;;;;;;;;;;29.23;23.00;98805.63;4487705;32;20652;-77
2022/07/16 11:06:58;;;;;;;6.85;2.20;;;;;;;29.21;23.05;98805.81;4487459;32;20048;-77
2022/07/16 11:09:32;;;;;;;7.00;2.03;;;;;;;29.19;22.73;98812.50;4473238;32;20104;-77
2022/07/16 11:12:37;;;;;;;7.10;2.12;;;;;;;29.51;22.51;98804.66;4487360;32;20119;-77
2022/07/16 11:15:03;;;;;;;10.35;2.37;;;;;;;29.54;22.30;98799.66;4483790;32;20080;-77
2022/07/16 11:17:30;;;;;;;8.95;2.22;;;;;;;29.63;22.18;98786.69;4473214;32;20349;-77
2022/07/16 11:20:00;;;;;;;6.43;2.30;;;;;;;29.75;22.32;98797.84;4473133;32;20126;-77
2022/07/16 11:22:28;;;;;;;10.25;2.20;;;;;;;29.64;22.26;98796.53;4487349;32;20088;-77
2022/07/16 11:24:58;;;;;;;7.03;2.00;;;;;;;29.32;22.78;98803.56;4473021;32;20400;-77
2022/07/16 11:27:31;;;;;;;7.93;2.30;;;;;;;29.06;23.55;98794.25;4473216;32;20124;-77
2022/07/16 11:29:58;;;;;;;10.32;2.12;;;;;;;29.30;23.33;98794.78;4487304;32;20187;-77
2022/07/16 11:32:24;;;;;;;5.53;1.90;;;;;;;29.48;23.55;98799.66;4487214;32;20158;-77
2022/07/16 11:34:49;;;;;;;5.75;1.87;;;;;;;29.81;22.90;98799.72;4487330;32;20378;-77
2022/07/16 11:37:14;;;;;;;8.52;2.17;;;;;;;29.83;22.67;98807.66;4487164;32;20100;-77
2022/07/16 11:39:40;;;;;;;6.68;1.95;;;;;;;30.05;22.50;98800.12;4487224;32;20084;-77
2022/07/16 11:42:06;;;;;;;8.25;2.15;;;;;;;30.16;22.37;98807.66;4487155;32;20137;-77